createdAt,value
2023-08-22T00:01:37.606Z,86.74
2023-08-22T00:04:06.366Z,86.69
2023-08-22T00:06:35.279Z,86.66
2023-08-22T00:09:05.219Z,86.44
2023-08-22T00:11:34.348Z,86.92
2023-08-22T00:14:03.213Z,87.30
2023-08-22T00:16:32.863Z,87.26
2023-08-22T00:19:01.974Z,86.94
2023-08-22T00:21:31.326Z,86.55
2023-08-22T00:24:00.328Z,86.58
2023-08-22T00:26:29.077Z,86.71
2023-08-22T00:28:59.145Z,86.75
2023-08-22T00:31:28.127Z,87.12
2023-08-22T00:34:01.343Z,87.19
2023-08-22T00:36:30.239Z,87.11
2023-08-22T00:38:59.315Z,86.92
2023-08-22T00:41:28.311Z,86.82
2023-08-22T00:43:57.254Z,86.92
2023-08-22T00:46:29.539Z,86.84
2023-08-22T00:48:59.185Z,86.57
2023-08-22T00:51:28.254Z,86.29
2023-08-22T00:53:57.552Z,86.26
2023-08-22T00:56:26.453Z,86.50
2023-08-22T00:58:55.249Z,86.38
2023-08-22T01:01:24.296Z,87.05
2023-08-22T01:03:53.376Z,87.49
2023-08-22T01:06:31.950Z,87.51
2023-08-22T01:09:05.850Z,87.59
2023-08-22T01:11:40.698Z,87.96
2023-08-22T01:14:14.452Z,88.31
2023-08-22T01:16:43.734Z,88.18
2023-08-22T01:19:13.858Z,88.57
2023-08-22T01:21:49.588Z,88.84
2023-08-22T01:24:18.521Z,88.84
2023-08-22T01:26:48.894Z,88.73
2023-08-22T01:29:27.440Z,88.66
2023-08-22T01:32:05.658Z,88.48
2023-08-22T01:34:39.388Z,88.48
2023-08-22T01:37:10.375Z,88.71
2023-08-22T01:39:39.877Z,88.53
2023-08-22T01:42:09.366Z,88.36
2023-08-22T01:44:39.176Z,89.31
2023-08-22T01:47:09.562Z,89.53
2023-08-22T01:49:38.363Z,89.32
2023-08-22T01:52:07.236Z,89.66
2023-08-22T01:54:38.635Z,89.74
2023-08-22T01:57:07.514Z,89.54
2023-08-22T01:59:36.448Z,89.45
2023-08-22T02:02:05.396Z,89.48
2023-08-22T02:04:34.254Z,89.72
2023-08-22T02:07:04.638Z,90.12
2023-08-22T02:09:33.508Z,90.01
2023-08-22T02:12:03.392Z,89.64
2023-08-22T02:14:32.335Z,89.73
2023-08-22T02:17:02.044Z,89.91
2023-08-22T02:19:30.823Z,89.81
2023-08-22T02:21:59.705Z,89.47
2023-08-22T02:24:28.575Z,89.29
2023-08-22T02:26:57.865Z,89.29
2023-08-22T02:29:26.708Z,89.25
2023-08-22T02:31:55.954Z,89.11
2023-08-22T02:34:25.955Z,89.28
2023-08-22T02:36:54.749Z,89.45
2023-08-22T02:39:23.633Z,89.62
2023-08-22T02:41:52.732Z,90.17
2023-08-22T02:44:21.881Z,90.26
2023-08-22T02:46:50.960Z,90.17
2023-08-22T02:49:21.543Z,90.16
2023-08-22T02:51:50.243Z,90.11
2023-08-22T02:54:19.182Z,90.03
2023-08-22T02:56:48.025Z,90.08
2023-08-22T02:59:19.662Z,90.06
2023-08-22T03:01:49.386Z,89.65
2023-08-22T03:04:18.323Z,89.53
2023-08-22T03:06:47.439Z,88.90
2023-08-22T03:09:17.659Z,88.76
2023-08-22T03:11:46.391Z,89.16
2023-08-22T03:14:15.288Z,89.21
2023-08-22T03:16:44.129Z,89.42
2023-08-22T03:19:12.991Z,89.70
2023-08-22T03:21:42.931Z,89.43
2023-08-22T03:24:11.585Z,89.06
2023-08-22T03:26:40.644Z,88.99
2023-08-22T03:29:10.189Z,89.39
2023-08-22T03:31:39.332Z,89.72
2023-08-22T03:34:08.075Z,89.91
2023-08-22T03:36:37.068Z,89.78
2023-08-22T03:39:08.257Z,89.99
2023-08-22T03:41:37.084Z,89.91
2023-08-22T03:44:06.246Z,90.14
2023-08-22T03:46:39.268Z,90.57
2023-08-22T03:49:18.526Z,90.94
2023-08-22T03:51:47.439Z,91.28
2023-08-22T03:54:16.223Z,91.51
2023-08-22T03:56:45.127Z,91.64
2023-08-22T03:59:14.372Z,91.23
2023-08-22T04:01:43.100Z,91.15
2023-08-22T04:04:14.742Z,91.73
2023-08-22T04:06:42.942Z,91.88
2023-08-22T04:09:11.799Z,92.22
2023-08-22T04:11:44.637Z,92.23
2023-08-22T04:14:13.384Z,91.93
2023-08-22T04:16:42.163Z,91.60
2023-08-22T04:19:11.135Z,91.32
2023-08-22T04:21:41.086Z,91.07
2023-08-22T04:24:10.512Z,90.89
2023-08-22T04:26:39.983Z,91.32
2023-08-22T04:29:09.021Z,91.85
2023-08-22T04:31:37.813Z,91.53
2023-08-22T04:34:07.608Z,90.55
2023-08-22T04:36:41.919Z,89.30
2023-08-22T04:39:11.084Z,88.88
2023-08-22T04:41:40.242Z,88.23
2023-08-22T04:44:27.843Z,88.20
2023-08-22T04:46:56.619Z,87.58
2023-08-22T04:49:26.096Z,86.39
2023-08-22T04:51:55.442Z,85.58
2023-08-22T04:54:24.408Z,84.88
2023-08-22T04:56:53.569Z,83.97
2023-08-22T04:59:23.786Z,83.06
2023-08-22T05:01:52.658Z,81.81
2023-08-22T05:04:22.351Z,79.86
2023-08-22T05:06:52.194Z,77.81
2023-08-22T05:09:21.398Z,76.60
2023-08-22T05:11:51.096Z,75.70
2023-08-22T05:14:21.033Z,74.61
2023-08-22T05:16:51.807Z,73.56
2023-08-22T05:19:20.591Z,71.81
2023-08-22T05:21:49.774Z,71.10
2023-08-22T05:24:19.221Z,70.04
2023-08-22T05:26:48.092Z,69.07
2023-08-22T05:29:19.839Z,68.15
2023-08-22T05:31:48.816Z,67.31
2023-08-22T05:34:17.583Z,66.23
2023-08-22T05:36:47.361Z,65.31
2023-08-22T05:39:16.111Z,64.54
2023-08-22T05:41:45.044Z,63.73
2023-08-22T05:44:14.827Z,62.86
2023-08-22T05:46:44.221Z,61.84
2023-08-22T05:49:12.972Z,60.65
2023-08-22T05:51:41.693Z,59.73
2023-08-22T05:54:10.610Z,58.12
2023-08-22T05:56:39.604Z,57.61
2023-08-22T05:59:08.626Z,57.20
2023-08-22T06:01:37.451Z,56.88
2023-08-22T06:04:08.372Z,56.36
2023-08-22T06:06:37.209Z,55.33
2023-08-22T06:09:06.224Z,55.12
2023-08-22T06:11:35.088Z,54.79
2023-08-22T06:14:04.510Z,54.31
2023-08-22T06:16:33.626Z,54.60
2023-08-22T06:19:02.938Z,55.23
2023-08-22T06:21:31.699Z,54.99
2023-08-22T06:24:00.588Z,55.57
2023-08-22T06:26:29.480Z,55.70
2023-08-22T06:28:58.641Z,55.86
2023-08-22T06:31:30.211Z,55.02
2023-08-22T06:33:59.267Z,55.10
2023-08-22T06:36:28.986Z,55.43
2023-08-22T06:38:58.382Z,54.44
2023-08-22T06:41:27.733Z,53.01
2023-08-22T06:43:56.557Z,52.70
2023-08-22T06:46:27.679Z,52.86
2023-08-22T06:48:55.423Z,52.32
2023-08-22T06:51:24.535Z,51.61
2023-08-22T06:53:53.398Z,50.14
2023-08-22T06:56:22.058Z,48.72
2023-08-22T06:58:50.917Z,47.84
2023-08-22T07:01:19.815Z,48.02
2023-08-22T07:03:53.691Z,48.24
2023-08-22T07:06:31.249Z,48.48
2023-08-22T07:09:00.208Z,48.06
2023-08-22T07:11:28.923Z,46.87
2023-08-22T07:13:57.739Z,46.75
2023-08-22T07:16:26.622Z,46.18
2023-08-22T07:18:55.454Z,44.85
2023-08-22T07:21:24.491Z,45.58
2023-08-22T07:23:53.389Z,45.87
2023-08-22T07:26:22.281Z,45.07
2023-08-22T07:28:51.582Z,44.17
2023-08-22T07:31:20.519Z,44.01
2023-08-22T07:33:49.251Z,44.09
2023-08-22T07:36:22.013Z,42.98
2023-08-22T07:38:50.895Z,41.81
2023-08-22T07:41:19.687Z,41.92
2023-08-22T07:43:48.422Z,42.83
2023-08-22T07:46:17.455Z,43.03
2023-08-22T07:48:46.311Z,41.97
2023-08-22T07:51:15.033Z,42.19
2023-08-22T07:53:43.753Z,42.16
2023-08-22T07:56:12.668Z,41.36
2023-08-22T07:58:41.626Z,41.17
2023-08-22T08:01:12.969Z,41.01
2023-08-22T08:03:42.350Z,40.89
2023-08-22T08:06:11.673Z,40.54
2023-08-22T08:08:40.745Z,40.44
2023-08-22T08:11:09.450Z,39.49
2023-08-22T08:13:38.423Z,39.08
2023-08-22T08:16:08.018Z,38.47
2023-08-22T08:18:37.201Z,38.67
2023-08-22T08:21:06.117Z,38.84
2023-08-22T08:23:34.849Z,38.52
2023-08-22T08:26:57.232Z,38.62
2023-08-22T08:39:59.900Z,36.91
2023-08-22T08:43:12.391Z,36.82
2023-08-22T08:46:26.581Z,36.81
2023-08-22T08:49:20.705Z,36.56
2023-08-22T08:52:25.022Z,36.72
2023-08-22T08:55:39.012Z,36.50
2023-08-22T08:58:53.874Z,37.02
2023-08-22T09:02:15.167Z,37.42
2023-08-22T10:34:15.210Z,32.90
2023-08-22T10:51:04.012Z,33.25
2023-08-22T10:57:36.756Z,33.28
2023-08-22T11:07:02.378Z,33.43
2023-08-22T11:20:56.798Z,33.09
2023-08-22T11:24:23.861Z,33.31
2023-08-22T11:34:41.967Z,33.59
2023-08-22T11:41:30.966Z,34.21
2023-08-22T11:44:59.487Z,35.07
2023-08-22T11:52:08.488Z,34.78
2023-08-22T11:55:18.326Z,35.01
2023-08-22T11:58:45.809Z,34.84
2023-08-22T12:06:03.320Z,35.32
2023-08-22T12:09:37.677Z,35.25
2023-08-22T12:13:10.760Z,35.31
2023-08-22T12:20:05.235Z,36.42
2023-08-22T12:30:56.245Z,37.06
2023-08-22T12:38:17.735Z,38.41
2023-08-22T12:40:50.614Z,38.77
2023-08-22T12:47:11.026Z,38.64
2023-08-22T12:50:44.541Z,38.87
2023-08-22T12:54:29.640Z,39.25
2023-08-22T13:01:37.901Z,39.17
2023-08-22T13:09:08.657Z,39.61
2023-08-22T13:12:48.479Z,39.80
2023-08-22T13:16:38.038Z,40.64
2023-08-22T13:20:04.852Z,41.09
2023-08-22T13:23:29.424Z,41.80
2023-08-22T13:26:56.078Z,42.20
2023-08-22T13:30:27.283Z,42.20
2023-08-22T13:55:34.962Z,42.45
2023-08-22T13:58:06.485Z,42.49
2023-08-22T14:00:50.241Z,42.57
2023-08-22T14:03:58.911Z,42.50
2023-08-22T14:07:04.016Z,42.55
2023-08-22T14:10:22.058Z,42.53
2023-08-22T14:13:48.098Z,42.39
2023-08-22T14:27:27.583Z,43.76
2023-08-22T14:29:59.939Z,43.87
2023-08-22T14:32:33.970Z,43.51
2023-08-22T14:35:42.778Z,43.95
2023-08-22T14:38:41.937Z,44.17
2023-08-22T14:41:14.201Z,44.61
2023-08-22T14:43:46.126Z,44.32
2023-08-22T14:46:18.049Z,44.63
2023-08-22T14:48:50.037Z,44.19
2023-08-22T14:51:22.016Z,44.11
2023-08-22T14:53:54.253Z,44.38
2023-08-22T14:56:36.202Z,44.84
2023-08-22T15:02:00.578Z,44.67
2023-08-22T15:04:37.713Z,44.72
2023-08-22T15:10:04.841Z,44.88
2023-08-22T15:12:37.732Z,45.21
2023-08-22T15:18:02.692Z,45.49
2023-08-22T15:20:36.737Z,45.65
2023-08-22T15:23:10.306Z,45.08
2023-08-22T15:25:42.296Z,45.29
2023-08-22T15:28:14.315Z,45.51
2023-08-22T15:30:46.373Z,45.93
2023-08-22T15:34:04.659Z,46.07
2023-08-22T15:41:10.098Z,46.09
2023-08-22T15:44:30.768Z,46.51
2023-08-22T15:47:02.786Z,47.29
2023-08-22T15:49:34.722Z,47.28
2023-08-22T16:00:21.937Z,48.01
2023-08-22T16:03:39.731Z,47.83
2023-08-22T16:10:52.082Z,48.70
2023-08-22T16:17:22.241Z,49.18
2023-08-22T16:20:46.224Z,49.11
2023-08-22T16:23:24.015Z,49.41
2023-08-22T16:26:18.651Z,49.69
2023-08-22T16:28:57.339Z,50.03
2023-08-22T16:31:31.651Z,50.50
2023-08-22T16:34:05.063Z,51.09
2023-08-22T16:36:37.536Z,51.41
2023-08-22T16:39:11.223Z,51.86
2023-08-22T16:41:43.249Z,51.88
2023-08-22T16:44:15.364Z,52.21
2023-08-22T16:46:57.558Z,52.39
2023-08-22T16:49:29.618Z,52.55
2023-08-22T16:52:29.787Z,52.64
2023-08-22T16:55:42.871Z,52.95
